Terminal Aerodrome Forecast
Issued by NWS Tampa Bay Area, FL

Home | Current Version | Previous Version | Text Only | Print | Product List | Glossary Off
Versions: 1 2 3 4 5 6 7 8 9 10 11 12 13 14 15 16 17 18 19 20 21 22

000
FTUS42 KTBW 051700
TAFSRQ
TAF
KSRQ 051730Z 0518/0618 20012KT P6SM SKC
     FM060000 VRB03KT P6SM BKN250
     FM060800 34008KT 4SM BR SCT005 OVC015
     FM061200 02008KT P6SM OVC025=

USA.gov is the U.S. government's official web portal to all federal, state and local government web resources and services.